Terminal Aerodrome Forecast
Issued by NWS

Home | Current Version | Previous Version | Graphics & Text | Print | Product List | Glossary On
Versions: 1 2 3 4 5 6 7 8 9 10 11 12 13 14 15 16 17 18
000
FTUS43 KMPX 200500
TAFRWF
TAF
KRWF 200529Z 2006/2106 00000KT P6SM SCT250
     FM200700 00000KT 5SM BR SCT003
      TEMPO 2007/2009 2SM BR SCT002
     FM200900 VRB02KT 2SM BR SCT002
      TEMPO 2009/2013 3/4SM BR BKN002
     FM201400 14006KT P6SM SCT250
     FM210000 14008KT P6SM BKN070 PROB30 2100/2106 4SM TSRA
      OVC050CB=

USA.gov is the U.S. government's official web portal to all federal, state and local government web resources and services.